createdAt,value
2018-12-19T00:01:20.529Z,17.45
2018-12-19T00:04:04.268Z,18.62
2018-12-19T00:06:47.599Z,18.07
2018-12-19T00:09:29.843Z,17.48
2018-12-19T00:12:11.600Z,17.95
2018-12-19T00:14:53.338Z,17.27
2018-12-19T00:17:36.505Z,16.87
2018-12-19T00:20:18.441Z,17.55
2018-12-19T00:22:59.736Z,17.85
2018-12-19T00:25:41.048Z,16.75
2018-12-19T00:28:25.405Z,17.12
2018-12-19T00:31:08.457Z,17.35
2018-12-19T00:33:52.733Z,17.32
2018-12-19T00:36:34.972Z,17.20
2018-12-19T00:39:16.322Z,17.02
2018-12-19T00:41:57.482Z,16.80
2018-12-19T00:44:39.292Z,17.35
2018-12-19T00:47:20.431Z,16.45
2018-12-19T00:50:02.582Z,17.42
2018-12-19T00:52:43.960Z,17.67
2018-12-19T00:55:25.139Z,17.60
2018-12-19T00:58:06.793Z,16.15
2018-12-19T01:00:48.624Z,17.77
2018-12-19T01:03:30.513Z,17.10
2018-12-19T01:06:13.701Z,16.67
2018-12-19T01:08:55.477Z,16.40
2018-12-19T01:11:37.468Z,15.28
2018-12-19T01:14:19.066Z,16.35
2018-12-19T01:17:00.845Z,14.60
2018-12-19T01:19:43.406Z,15.45
2018-12-19T01:22:24.985Z,14.05
2018-12-19T01:25:06.708Z,14.15
2018-12-19T01:27:49.482Z,15.48
2018-12-19T01:30:31.641Z,13.98
2018-12-19T01:33:12.819Z,12.95
2018-12-19T01:35:55.056Z,14.87
2018-12-19T01:38:36.328Z,12.60
2018-12-19T01:41:18.019Z,12.40
2018-12-19T01:43:59.382Z,13.68
2018-12-19T01:46:41.075Z,12.95
2018-12-19T01:49:22.451Z,13.60
2018-12-19T01:52:03.792Z,13.17
2018-12-19T01:54:45.188Z,13.60
2018-12-19T01:57:26.809Z,13.88
2018-12-19T02:00:10.239Z,14.58
2018-12-19T02:02:52.055Z,13.55
2018-12-19T02:05:33.483Z,14.23
2018-12-19T02:08:14.614Z,12.17
2018-12-19T02:10:55.895Z,12.80
2018-12-19T02:13:39.618Z,12.53
2018-12-19T02:16:21.306Z,12.57
2018-12-19T02:19:02.916Z,11.97
2018-12-19T02:21:44.996Z,12.10
2018-12-19T02:24:26.693Z,11.88
2018-12-19T02:27:07.970Z,12.07
2018-12-19T02:29:50.036Z,12.05
2018-12-19T02:32:31.755Z,12.90
2018-12-19T02:35:13.149Z,12.47
2018-12-19T02:37:54.335Z,12.03
2018-12-19T02:40:36.617Z,12.60
2018-12-19T02:43:18.179Z,12.23
2018-12-19T02:45:59.712Z,11.90
2018-12-19T02:48:41.075Z,10.87
2018-12-19T02:51:22.270Z,11.83
2018-12-19T02:54:04.576Z,10.98
2018-12-19T02:56:47.978Z,11.60
2018-12-19T02:59:30.113Z,12.40
2018-12-19T03:02:11.839Z,11.30
2018-12-19T03:04:53.593Z,10.48
2018-12-19T03:07:34.878Z,10.77
2018-12-19T03:10:16.843Z,10.28
2018-12-19T03:12:58.073Z,10.85
2018-12-19T03:15:39.609Z,11.60
2018-12-19T03:18:21.300Z,10.80
2018-12-19T03:21:02.664Z,10.28
2018-12-19T03:23:44.278Z,10.37
2018-12-19T03:26:25.419Z,10.25
2018-12-19T03:29:07.518Z,10.32
2018-12-19T03:31:49.880Z,11.13
2018-12-19T03:34:31.689Z,10.32
2018-12-19T03:37:13.450Z,10.43
2018-12-19T03:39:55.655Z,11.05
2018-12-19T03:42:36.965Z,10.27
2018-12-19T03:45:18.583Z,9.73
2018-12-19T03:47:59.983Z,10.25
2018-12-19T03:50:41.272Z,8.78
2018-12-19T03:53:22.488Z,9.73
2018-12-19T03:56:04.823Z,9.65
2018-12-19T03:58:47.085Z,10.10
2018-12-19T04:01:28.342Z,9.30
2018-12-19T04:04:10.641Z,9.63
2018-12-19T04:06:52.532Z,9.57
2018-12-19T04:09:34.942Z,9.40
2018-12-19T04:12:17.508Z,10.05
2018-12-19T04:14:58.926Z,9.60
2018-12-19T04:17:42.586Z,10.15
2018-12-19T04:20:24.780Z,9.43
2018-12-19T04:23:06.723Z,9.28
2018-12-19T04:25:47.977Z,9.20
2018-12-19T04:28:29.200Z,9.13
2018-12-19T04:31:11.407Z,9.90
2018-12-19T04:33:53.581Z,9.95
2018-12-19T04:36:35.588Z,10.37
2018-12-19T04:39:17.336Z,10.48
2018-12-19T04:41:59.133Z,10.20
2018-12-19T04:44:41.273Z,10.68
2018-12-19T04:47:22.923Z,9.67
2018-12-19T04:50:05.109Z,9.50
2018-12-19T04:52:47.016Z,9.53
2018-12-19T04:55:30.911Z,9.70
2018-12-19T04:58:12.645Z,9.18
2018-12-19T05:00:54.532Z,10.08
2018-12-19T05:03:36.224Z,9.90
2018-12-19T05:06:17.411Z,9.88
2018-12-19T05:08:58.588Z,9.80
2018-12-19T05:11:40.603Z,10.60
2018-12-19T05:14:22.970Z,10.40
2018-12-19T05:17:04.484Z,10.10
2018-12-19T05:19:47.076Z,11.05
2018-12-19T05:22:28.781Z,11.53
2018-12-19T05:25:13.584Z,11.12
2018-12-19T05:27:55.432Z,11.03
2018-12-19T05:30:37.376Z,11.22
2018-12-19T05:33:19.328Z,11.93
2018-12-19T05:36:01.241Z,12.13
2018-12-19T05:38:42.662Z,11.50
2018-12-19T05:41:24.266Z,11.60
2018-12-19T05:44:06.924Z,10.40
2018-12-19T05:46:49.007Z,11.70
2018-12-19T05:49:31.625Z,10.70
2018-12-19T05:52:13.339Z,11.38
2018-12-19T05:54:55.091Z,11.63
2018-12-19T05:57:37.282Z,11.53
2018-12-19T06:00:21.927Z,12.03
2018-12-19T06:03:06.476Z,11.65
2018-12-19T06:05:49.879Z,10.23
2018-12-19T06:08:31.574Z,10.72
2018-12-19T06:11:14.068Z,11.08
2018-12-19T06:13:55.393Z,11.57
2018-12-19T06:16:37.239Z,11.43
2018-12-19T06:19:19.499Z,11.95
2018-12-19T06:22:01.356Z,11.63
2018-12-19T06:24:42.909Z,11.40
2018-12-19T06:27:24.613Z,11.67
2018-12-19T06:30:07.479Z,10.90
2018-12-19T06:32:49.775Z,11.53
2018-12-19T06:35:31.957Z,11.35
2018-12-19T06:38:14.256Z,11.73
2018-12-19T06:40:55.921Z,11.73
2018-12-19T06:43:37.474Z,11.43
2018-12-19T06:46:19.503Z,11.97
2018-12-19T06:49:00.891Z,11.55
2018-12-19T06:51:42.231Z,11.93
2018-12-19T06:54:23.510Z,10.23
2018-12-19T06:57:05.475Z,12.50
2018-12-19T06:59:47.367Z,11.85
2018-12-19T07:02:28.559Z,11.28
2018-12-19T07:05:10.439Z,11.22
2018-12-19T07:07:51.762Z,11.00
2018-12-19T07:10:38.947Z,11.60
2018-12-19T07:13:18.458Z,10.20
2018-12-19T07:15:59.737Z,11.53
2018-12-19T07:18:41.429Z,11.33
2018-12-19T07:21:22.594Z,11.65
2018-12-19T07:24:05.351Z,12.23
2018-12-19T07:26:46.762Z,12.13
2018-12-19T07:29:28.074Z,11.97
2018-12-19T07:32:09.864Z,12.45
2018-12-19T07:34:51.220Z,12.07
2018-12-19T07:37:34.170Z,12.75
2018-12-19T07:40:15.421Z,11.03
2018-12-19T07:42:56.735Z,13.38
2018-12-19T07:45:37.913Z,12.43
2018-12-19T07:48:19.977Z,12.50
2018-12-19T07:51:01.765Z,12.28
2018-12-19T07:53:43.576Z,11.73
2018-12-19T07:56:25.536Z,11.20
2018-12-19T07:59:07.552Z,12.10
2018-12-19T08:01:49.187Z,11.57
2018-12-19T08:04:32.797Z,11.65
2018-12-19T08:07:14.082Z,11.12
2018-12-19T08:10:02.048Z,11.38
2018-12-19T08:12:43.991Z,10.78
2018-12-19T08:15:26.184Z,12.15
2018-12-19T08:18:07.714Z,11.30
2018-12-19T08:20:49.363Z,11.38
2018-12-19T08:23:31.299Z,11.38
2018-12-19T08:26:12.887Z,11.97
2018-12-19T08:28:54.578Z,12.45
2018-12-19T08:31:36.313Z,11.63
2018-12-19T08:34:18.032Z,12.28
2018-12-19T08:37:00.163Z,11.97
2018-12-19T08:39:42.594Z,12.60
2018-12-19T08:42:25.283Z,12.90
2018-12-19T08:45:08.781Z,13.32
2018-12-19T08:47:50.780Z,12.73
2018-12-19T08:50:33.698Z,12.13
2018-12-19T08:53:15.323Z,12.25
2018-12-19T08:55:56.693Z,11.63
2018-12-19T08:58:38.883Z,11.63
2018-12-19T09:01:47.418Z,12.70
2018-12-19T09:04:33.760Z,11.65
2018-12-19T09:07:22.238Z,12.47
2018-12-19T09:10:15.348Z,12.18
2018-12-19T09:12:57.527Z,11.90
2018-12-19T09:15:44.338Z,12.60
2018-12-19T09:18:26.116Z,12.18
2018-12-19T09:21:07.320Z,10.88
2018-12-19T09:23:49.674Z,12.33
2018-12-19T09:26:33.283Z,11.83
2018-12-19T09:29:14.755Z,12.47
2018-12-19T09:31:57.759Z,12.03
2018-12-19T09:34:40.199Z,11.97
2018-12-19T09:37:22.500Z,11.53
2018-12-19T09:40:05.280Z,12.18
2018-12-19T09:42:47.978Z,12.98
2018-12-19T09:45:30.017Z,12.03
2018-12-19T09:48:11.944Z,12.37
2018-12-19T09:50:53.776Z,13.45
2018-12-19T09:53:36.209Z,12.88
2018-12-19T09:56:17.726Z,13.30
2018-12-19T09:58:59.142Z,13.15
2018-12-19T10:01:41.456Z,13.20
2018-12-19T10:04:23.361Z,12.70
2018-12-19T10:07:05.249Z,12.88
2018-12-19T10:09:46.840Z,13.30
2018-12-19T10:12:27.975Z,12.33
2018-12-19T10:15:11.052Z,13.32
2018-12-19T10:17:52.859Z,12.63
2018-12-19T10:20:34.603Z,12.43
2018-12-19T10:23:16.735Z,13.13
2018-12-19T10:26:04.254Z,14.23
2018-12-19T10:28:46.567Z,12.47
2018-12-19T10:31:29.239Z,13.48
2018-12-19T10:34:10.464Z,13.88
2018-12-19T10:36:52.259Z,13.65
2018-12-19T10:39:34.367Z,14.38
2018-12-19T10:42:16.515Z,14.98
2018-12-19T10:44:59.651Z,14.80
2018-12-19T10:47:42.085Z,13.95
2018-12-19T10:50:24.113Z,15.50
2018-12-19T10:53:06.596Z,14.93
2018-12-19T10:55:49.213Z,15.43
2018-12-19T10:58:31.464Z,15.90
2018-12-19T11:01:13.367Z,15.23
2018-12-19T11:03:56.815Z,15.55
2018-12-19T11:06:38.787Z,15.85
2018-12-19T11:09:21.221Z,16.12
2018-12-19T11:12:03.142Z,15.25
2018-12-19T11:14:45.008Z,15.20
2018-12-19T11:17:26.966Z,15.88
2018-12-19T11:20:10.982Z,15.10
2018-12-19T11:22:53.612Z,14.90
2018-12-19T11:25:35.387Z,16.32
2018-12-19T11:31:07.204Z,16.37
2018-12-19T11:33:49.496Z,16.32
2018-12-19T11:36:31.871Z,15.68
2018-12-19T11:39:14.165Z,17.35
2018-12-19T11:41:56.553Z,16.65
2018-12-19T11:44:38.838Z,15.58
2018-12-19T11:47:20.772Z,17.00
2018-12-19T11:50:04.728Z,16.10
2018-12-19T11:52:46.586Z,15.72
2018-12-19T11:55:28.163Z,16.00
2018-12-19T11:58:10.624Z,15.75
2018-12-19T12:00:54.089Z,17.23
2018-12-19T12:03:36.590Z,16.70
2018-12-19T12:06:19.846Z,16.10
2018-12-19T12:09:01.324Z,16.87
2018-12-19T12:11:45.755Z,17.25
2018-12-19T12:14:27.824Z,17.02
2018-12-19T12:17:09.905Z,17.07
2018-12-19T12:19:52.229Z,16.65
2018-12-19T12:22:34.128Z,17.70
2018-12-19T12:25:15.987Z,15.38
2018-12-19T12:27:58.263Z,16.30
2018-12-19T12:30:41.017Z,17.67
2018-12-19T12:33:24.111Z,16.97
2018-12-19T12:36:07.289Z,16.77
2018-12-19T12:41:34.521Z,15.78
2018-12-19T12:44:16.682Z,16.62
2018-12-19T12:46:58.622Z,16.23
2018-12-19T12:49:40.643Z,15.80
2018-12-19T12:52:22.731Z,15.20
2018-12-19T12:55:06.047Z,16.52
2018-12-19T12:57:47.943Z,16.45
2018-12-19T13:00:30.371Z,16.80
2018-12-19T13:03:12.588Z,16.73
2018-12-19T13:05:54.421Z,16.25
2018-12-19T13:08:36.593Z,16.02
2018-12-19T13:11:19.346Z,16.25
2018-12-19T13:14:01.366Z,15.95
2018-12-19T13:16:43.978Z,16.85
2018-12-19T13:19:27.920Z,16.42
2018-12-19T13:22:10.160Z,16.52
2018-12-19T13:24:52.610Z,16.60
2018-12-19T13:27:34.829Z,16.10
2018-12-19T13:30:17.963Z,15.98
2018-12-19T13:33:00.057Z,16.10
2018-12-19T13:35:42.382Z,16.27
2018-12-19T13:38:24.189Z,16.12
2018-12-19T13:41:07.163Z,17.10
2018-12-19T13:43:49.474Z,17.15
2018-12-19T13:46:31.675Z,17.20
2018-12-19T13:49:13.949Z,16.75
2018-12-19T13:51:56.284Z,16.90
2018-12-19T13:54:38.309Z,16.97
2018-12-19T13:57:20.586Z,16.20
2018-12-19T14:00:03.646Z,18.67
2018-12-19T14:02:47.520Z,17.48
2018-12-19T14:05:29.751Z,17.52
2018-12-19T14:08:11.856Z,16.57
2018-12-19T14:10:53.851Z,17.65
2018-12-19T14:13:36.160Z,17.32
2018-12-19T14:16:18.276Z,17.02
2018-12-19T14:19:00.571Z,17.55
2018-12-19T14:21:42.723Z,18.48
2018-12-19T14:24:24.480Z,18.77
2018-12-19T14:27:06.679Z,19.10
2018-12-19T14:29:49.578Z,18.42
2018-12-19T14:32:32.135Z,16.93
2018-12-19T14:35:14.902Z,17.07
2018-12-19T14:37:57.573Z,18.30
2018-12-19T14:40:39.793Z,18.30
2018-12-19T14:43:21.338Z,17.87
2018-12-19T14:46:03.018Z,17.65
2018-12-19T14:48:45.429Z,17.32
2018-12-19T14:51:27.969Z,16.35
2018-12-19T14:54:10.669Z,17.32
2018-12-19T14:56:53.141Z,17.30
2018-12-19T14:59:34.937Z,16.77
2018-12-19T15:02:16.770Z,18.10
2018-12-19T15:04:59.067Z,18.35
2018-12-19T15:07:40.664Z,16.02
2018-12-19T15:10:23.145Z,18.92
2018-12-19T15:13:04.298Z,19.27
2018-12-19T15:15:50.207Z,18.23
2018-12-19T15:18:32.305Z,17.90
2018-12-19T15:21:14.981Z,18.37
2018-12-19T15:23:57.625Z,19.40
2018-12-19T15:26:39.591Z,17.65
2018-12-19T15:29:23.284Z,19.00
2018-12-19T15:32:04.831Z,19.15
2018-12-19T15:34:48.164Z,18.60
2018-12-19T15:37:30.056Z,18.15
2018-12-19T15:40:12.318Z,18.77
2018-12-19T15:42:53.968Z,18.42
2018-12-19T15:45:35.564Z,18.75
2018-12-19T15:48:17.044Z,18.40
2018-12-19T15:50:58.361Z,19.02
2018-12-19T15:53:40.206Z,18.12
2018-12-19T15:56:21.886Z,18.77
2018-12-19T15:59:04.219Z,18.52
2018-12-19T16:01:46.164Z,18.63
2018-12-19T16:04:27.855Z,19.52
2018-12-19T16:07:09.270Z,19.65
2018-12-19T16:09:51.398Z,19.30
2018-12-19T16:12:39.240Z,19.67
2018-12-19T16:15:18.152Z,18.32
2018-12-19T16:17:59.491Z,18.60
2018-12-19T16:20:41.339Z,18.92
2018-12-19T16:23:23.155Z,17.65
2018-12-19T16:26:04.674Z,17.73
2018-12-19T16:28:45.995Z,18.00
2018-12-19T16:31:27.801Z,18.92
2018-12-19T16:34:09.665Z,19.45
2018-12-19T16:36:51.381Z,19.73
2018-12-19T16:39:32.991Z,19.62
2018-12-19T16:42:14.812Z,20.55
2018-12-19T16:44:59.788Z,18.25
2018-12-19T16:47:42.088Z,18.85
2018-12-19T16:50:23.755Z,21.20
2018-12-19T16:53:05.981Z,21.35
2018-12-19T16:55:48.184Z,20.32
2018-12-19T16:58:30.650Z,20.60
2018-12-19T17:01:12.157Z,21.80
2018-12-19T17:03:53.811Z,19.65
2018-12-19T17:06:36.175Z,20.32
2018-12-19T17:09:17.567Z,20.80
2018-12-19T17:11:58.898Z,20.57
2018-12-19T17:14:40.911Z,20.72
2018-12-19T17:17:22.606Z,21.97
2018-12-19T17:20:05.638Z,21.33
2018-12-19T17:22:47.413Z,21.35
2018-12-19T17:25:29.588Z,21.25
2018-12-19T17:28:11.266Z,22.45
2018-12-19T17:30:53.816Z,21.50
2018-12-19T17:33:35.844Z,22.70
2018-12-19T17:36:17.398Z,21.25
2018-12-19T17:38:58.611Z,22.85
2018-12-19T17:41:40.678Z,22.67
2018-12-19T17:44:23.039Z,22.55
2018-12-19T17:47:04.702Z,22.02
2018-12-19T17:49:46.467Z,24.25
2018-12-19T17:52:31.414Z,22.75
2018-12-19T17:55:13.166Z,24.32
2018-12-19T17:57:54.579Z,22.93
2018-12-19T18:00:36.993Z,24.27
2018-12-19T18:03:18.779Z,24.52
2018-12-19T18:06:01.135Z,25.72
2018-12-19T18:08:42.578Z,25.10
2018-12-19T18:11:25.472Z,23.92
2018-12-19T18:14:08.260Z,25.60
2018-12-19T18:16:50.017Z,23.95
2018-12-19T18:19:32.660Z,25.92
2018-12-19T18:22:15.842Z,25.45
2018-12-19T18:24:57.544Z,23.05
2018-12-19T18:27:39.536Z,24.85
2018-12-19T18:30:21.155Z,25.43
2018-12-19T18:33:03.105Z,25.52
2018-12-19T18:35:44.260Z,24.23
2018-12-19T18:38:25.547Z,26.93
2018-12-19T18:41:07.891Z,25.52
2018-12-19T18:43:49.718Z,26.85
2018-12-19T18:46:32.463Z,26.55
2018-12-19T18:49:13.836Z,28.52
2018-12-19T18:51:56.096Z,27.60
2018-12-19T18:54:37.853Z,27.32
2018-12-19T18:57:19.930Z,27.20
2018-12-19T19:00:01.609Z,27.73
2018-12-19T19:02:44.801Z,28.83
2018-12-19T19:05:27.382Z,29.75
2018-12-19T19:08:09.142Z,28.10
2018-12-19T19:10:50.733Z,28.80
2018-12-19T19:13:31.946Z,28.52
2018-12-19T19:16:13.238Z,28.07
2018-12-19T19:18:55.193Z,27.42
2018-12-19T19:21:37.229Z,27.98
2018-12-19T19:24:19.109Z,28.15
2018-12-19T19:27:00.608Z,28.07
2018-12-19T19:29:42.363Z,28.90
2018-12-19T19:32:24.275Z,29.23
2018-12-19T19:35:06.709Z,29.07
2018-12-19T19:37:48.635Z,28.23
2018-12-19T19:40:31.066Z,28.70
2018-12-19T19:43:13.652Z,30.32
2018-12-19T19:45:55.251Z,29.63
2018-12-19T19:48:37.190Z,31.40
2018-12-19T19:51:19.082Z,30.48
2018-12-19T19:54:01.101Z,29.23
2018-12-19T19:56:42.996Z,31.07
2018-12-19T19:59:25.262Z,31.50
2018-12-19T20:02:11.768Z,29.50
2018-12-19T20:04:53.493Z,31.15
2018-12-19T20:07:35.557Z,30.92
2018-12-19T20:10:17.244Z,31.12
2018-12-19T20:12:58.555Z,32.33
2018-12-19T20:15:39.946Z,28.77
2018-12-19T20:18:22.123Z,29.70
2018-12-19T20:21:05.036Z,30.57
2018-12-19T20:23:46.314Z,29.00
2018-12-19T20:26:27.523Z,32.67
2018-12-19T20:29:08.916Z,30.23
2018-12-19T20:31:50.323Z,33.95
2018-12-19T20:34:32.716Z,32.85
2018-12-19T20:37:14.140Z,31.62
2018-12-19T20:39:56.132Z,33.08
2018-12-19T20:42:37.706Z,32.10
2018-12-19T20:45:19.719Z,31.90
2018-12-19T20:48:01.921Z,31.85
2018-12-19T20:50:50.457Z,31.97
2018-12-19T20:53:32.125Z,31.45
2018-12-19T20:56:13.491Z,32.20
2018-12-19T20:58:55.885Z,32.73
2018-12-19T21:01:38.103Z,29.20
2018-12-19T21:04:19.819Z,31.93
2018-12-19T21:09:47.273Z,31.68
2018-12-19T21:12:28.882Z,31.12
2018-12-19T21:15:10.977Z,30.70
2018-12-19T21:17:58.031Z,30.80
2018-12-19T21:20:40.251Z,32.13
2018-12-19T21:23:22.471Z,31.68
2018-12-19T21:26:04.099Z,30.72
2018-12-19T21:28:46.347Z,31.37
2018-12-19T21:31:27.773Z,30.75
2018-12-19T21:34:10.298Z,32.13
2018-12-19T21:36:52.737Z,29.18
2018-12-19T21:39:34.048Z,31.30
2018-12-19T21:42:16.521Z,30.27
2018-12-19T21:44:58.458Z,29.80
2018-12-19T21:47:40.351Z,29.92
2018-12-19T21:50:22.848Z,29.48
2018-12-19T21:53:05.370Z,30.32
2018-12-19T21:55:48.289Z,30.25
2018-12-19T21:58:30.761Z,29.75
2018-12-19T22:01:12.616Z,28.83
2018-12-19T22:03:54.518Z,30.90
2018-12-19T22:06:37.196Z,30.62
2018-12-19T22:09:18.959Z,31.62
2018-12-19T22:12:01.363Z,31.82
2018-12-19T22:14:42.882Z,30.95
2018-12-19T22:17:29.761Z,31.60
2018-12-19T22:20:11.732Z,30.85
2018-12-19T22:22:54.058Z,30.30
2018-12-19T22:25:35.490Z,29.42
2018-12-19T22:28:17.000Z,29.37
2018-12-19T22:30:59.760Z,28.83
2018-12-19T22:33:41.167Z,27.73
2018-12-19T22:36:23.338Z,28.55
2018-12-19T22:39:13.813Z,27.00
2018-12-19T22:41:55.249Z,28.42
2018-12-19T22:44:36.716Z,26.48
2018-12-19T22:47:18.417Z,26.37
2018-12-19T22:50:00.010Z,26.48
2018-12-19T22:52:42.005Z,28.87
2018-12-19T22:55:23.797Z,29.35
2018-12-19T22:58:05.743Z,28.07
2018-12-19T23:00:55.619Z,29.45
2018-12-19T23:03:44.002Z,30.55
2018-12-19T23:06:26.803Z,29.10
2018-12-19T23:09:08.981Z,29.27
2018-12-19T23:11:50.878Z,29.48
2018-12-19T23:14:33.285Z,30.15
2018-12-19T23:17:25.103Z,29.80
2018-12-19T23:20:12.376Z,31.02
2018-12-19T23:22:59.566Z,30.17
2018-12-19T23:25:46.920Z,28.95
2018-12-19T23:28:30.141Z,30.35
2018-12-19T23:31:13.071Z,29.32
2018-12-19T23:33:55.174Z,28.92
2018-12-19T23:36:36.708Z,29.10
2018-12-19T23:39:18.938Z,29.92
2018-12-19T23:42:01.256Z,29.65
2018-12-19T23:44:43.129Z,30.60
2018-12-19T23:47:24.322Z,30.00
2018-12-19T23:50:06.853Z,30.52
2018-12-19T23:52:48.476Z,30.05
2018-12-19T23:55:29.999Z,29.12
2018-12-19T23:58:11.386Z,29.15
